sensor_id;sensor_type;location;lat;lon;timestamp;P1;durP1;ratioP1;P2;durP2;ratioP2
11735;SDS011;5924;51.398;7.088;2022-11-20T00:01:14;41.40;;;20.23;;
11735;SDS011;5924;51.398;7.088;2022-11-20T00:03:40;37.43;;;19.03;;
11735;SDS011;5924;51.398;7.088;2022-11-20T00:06:07;37.53;;;19.67;;
11735;SDS011;5924;51.398;7.088;2022-11-20T00:08:34;41.30;;;19.47;;
11735;SDS011;5924;51.398;7.088;2022-11-20T00:11:04;38.63;;;19.67;;
11735;SDS011;5924;51.398;7.088;2022-11-20T00:13:31;36.53;;;19.03;;
11735;SDS011;5924;51.398;7.088;2022-11-20T00:15:57;42.33;;;19.80;;
11735;SDS011;5924;51.398;7.088;2022-11-20T00:18:24;39.37;;;20.57;;
11735;SDS011;5924;51.398;7.088;2022-11-20T00:20:50;33.90;;;18.80;;
11735;SDS011;5924;51.398;7.088;2022-11-20T00:23:16;34.30;;;18.70;;
11735;SDS011;5924;51.398;7.088;2022-11-20T00:25:42;39.70;;;20.70;;
11735;SDS011;5924;51.398;7.088;2022-11-20T00:28:07;33.20;;;18.80;;
11735;SDS011;5924;51.398;7.088;2022-11-20T00:30:33;40.23;;;19.10;;
11735;SDS011;5924;51.398;7.088;2022-11-20T00:32:59;33.57;;;18.47;;
11735;SDS011;5924;51.398;7.088;2022-11-20T00:35:24;39.17;;;19.60;;
11735;SDS011;5924;51.398;7.088;2022-11-20T00:37:50;36.50;;;19.33;;
11735;SDS011;5924;51.398;7.088;2022-11-20T00:40:15;37.33;;;18.57;;
11735;SDS011;5924;51.398;7.088;2022-11-20T00:42:41;33.03;;;18.20;;
11735;SDS011;5924;51.398;7.088;2022-11-20T00:45:07;35.10;;;18.07;;
11735;SDS011;5924;51.398;7.088;2022-11-20T00:47:32;36.23;;;18.80;;
11735;SDS011;5924;51.398;7.088;2022-11-20T00:49:58;31.67;;;19.10;;
11735;SDS011;5924;51.398;7.088;2022-11-20T00:52:23;40.93;;;19.53;;
11735;SDS011;5924;51.398;7.088;2022-11-20T00:54:49;41.40;;;19.77;;
11735;SDS011;5924;51.398;7.088;2022-11-20T00:57:15;39.80;;;20.63;;
11735;SDS011;5924;51.398;7.088;2022-11-20T00:59:40;39.37;;;19.53;;
11735;SDS011;5924;51.398;7.088;2022-11-20T01:02:06;39.77;;;20.70;;
11735;SDS011;5924;51.398;7.088;2022-11-20T01:04:31;39.83;;;20.90;;
11735;SDS011;5924;51.398;7.088;2022-11-20T01:06:57;39.17;;;20.27;;
11735;SDS011;5924;51.398;7.088;2022-11-20T01:09:23;40.33;;;19.50;;
11735;SDS011;5924;51.398;7.088;2022-11-20T01:11:48;30.87;;;16.73;;
11735;SDS011;5924;51.398;7.088;2022-11-20T01:14:15;37.53;;;19.17;;
11735;SDS011;5924;51.398;7.088;2022-11-20T01:16:43;36.17;;;19.17;;
11735;SDS011;5924;51.398;7.088;2022-11-20T01:19:12;40.90;;;18.87;;
11735;SDS011;5924;51.398;7.088;2022-11-20T01:21:41;36.20;;;18.80;;
11735;SDS011;5924;51.398;7.088;2022-11-20T01:24:08;33.33;;;18.13;;
11735;SDS011;5924;51.398;7.088;2022-11-20T01:26:37;40.37;;;19.27;;
11735;SDS011;5924;51.398;7.088;2022-11-20T01:29:04;36.20;;;17.93;;
11735;SDS011;5924;51.398;7.088;2022-11-20T01:31:32;33.73;;;18.70;;
11735;SDS011;5924;51.398;7.088;2022-11-20T01:34:00;40.47;;;18.60;;
11735;SDS011;5924;51.398;7.088;2022-11-20T01:36:28;35.00;;;17.93;;
11735;SDS011;5924;51.398;7.088;2022-11-20T01:38:56;36.40;;;19.97;;
11735;SDS011;5924;51.398;7.088;2022-11-20T01:41:25;35.13;;;18.77;;
11735;SDS011;5924;51.398;7.088;2022-11-20T01:44:11;35.93;;;18.63;;
11735;SDS011;5924;51.398;7.088;2022-11-20T01:46:40;44.57;;;20.37;;
11735;SDS011;5924;51.398;7.088;2022-11-20T01:51:49;40.37;;;18.20;;
11735;SDS011;5924;51.398;7.088;2022-11-20T01:54:17;29.00;;;17.40;;
11735;SDS011;5924;51.398;7.088;2022-11-20T01:56:48;39.27;;;20.07;;
11735;SDS011;5924;51.398;7.088;2022-11-20T01:59:18;36.27;;;19.37;;
11735;SDS011;5924;51.398;7.088;2022-11-20T02:01:45;40.07;;;19.90;;
11735;SDS011;5924;51.398;7.088;2022-11-20T02:04:11;35.70;;;19.17;;
11735;SDS011;5924;51.398;7.088;2022-11-20T02:06:40;36.50;;;18.67;;
11735;SDS011;5924;51.398;7.088;2022-11-20T02:09:13;34.17;;;18.30;;
11735;SDS011;5924;51.398;7.088;2022-11-20T02:11:40;37.90;;;19.70;;
11735;SDS011;5924;51.398;7.088;2022-11-20T02:14:06;37.07;;;19.87;;
11735;SDS011;5924;51.398;7.088;2022-11-20T02:16:36;40.97;;;19.37;;
11735;SDS011;5924;51.398;7.088;2022-11-20T02:19:06;36.10;;;19.17;;
11735;SDS011;5924;51.398;7.088;2022-11-20T02:24:14;32.30;;;19.60;;
11735;SDS011;5924;51.398;7.088;2022-11-20T02:27:03;35.87;;;17.73;;
11735;SDS011;5924;51.398;7.088;2022-11-20T02:29:41;31.90;;;17.30;;
11735;SDS011;5924;51.398;7.088;2022-11-20T02:32:17;37.50;;;18.50;;
11735;SDS011;5924;51.398;7.088;2022-11-20T02:34:47;30.70;;;16.43;;
11735;SDS011;5924;51.398;7.088;2022-11-20T02:37:13;30.97;;;18.37;;
11735;SDS011;5924;51.398;7.088;2022-11-20T02:39:39;34.97;;;18.07;;
11735;SDS011;5924;51.398;7.088;2022-11-20T02:42:06;32.03;;;18.40;;
11735;SDS011;5924;51.398;7.088;2022-11-20T02:44:32;32.50;;;16.57;;
11735;SDS011;5924;51.398;7.088;2022-11-20T02:46:58;29.63;;;17.33;;
11735;SDS011;5924;51.398;7.088;2022-11-20T02:49:24;27.63;;;15.20;;
11735;SDS011;5924;51.398;7.088;2022-11-20T02:51:50;35.97;;;18.80;;
11735;SDS011;5924;51.398;7.088;2022-11-20T02:54:16;31.27;;;16.60;;
11735;SDS011;5924;51.398;7.088;2022-11-20T02:56:42;30.50;;;15.80;;
11735;SDS011;5924;51.398;7.088;2022-11-20T02:59:08;33.27;;;17.90;;
11735;SDS011;5924;51.398;7.088;2022-11-20T03:01:34;30.80;;;17.93;;
11735;SDS011;5924;51.398;7.088;2022-11-20T03:04:00;28.97;;;17.60;;
11735;SDS011;5924;51.398;7.088;2022-11-20T03:06:26;34.07;;;18.07;;
11735;SDS011;5924;51.398;7.088;2022-11-20T03:08:52;34.13;;;18.40;;
11735;SDS011;5924;51.398;7.088;2022-11-20T03:11:18;39.40;;;19.87;;
11735;SDS011;5924;51.398;7.088;2022-11-20T03:13:44;40.23;;;19.93;;
11735;SDS011;5924;51.398;7.088;2022-11-20T03:16:11;31.23;;;16.63;;
11735;SDS011;5924;51.398;7.088;2022-11-20T03:18:39;28.80;;;17.43;;
11735;SDS011;5924;51.398;7.088;2022-11-20T03:21:06;30.93;;;16.37;;
11735;SDS011;5924;51.398;7.088;2022-11-20T03:23:32;35.90;;;18.43;;
11735;SDS011;5924;51.398;7.088;2022-11-20T03:28:39;35.07;;;18.60;;
11735;SDS011;5924;51.398;7.088;2022-11-20T03:31:10;29.03;;;16.77;;
11735;SDS011;5924;51.398;7.088;2022-11-20T03:33:38;28.93;;;16.20;;
11735;SDS011;5924;51.398;7.088;2022-11-20T03:36:06;31.40;;;17.50;;
11735;SDS011;5924;51.398;7.088;2022-11-20T03:38:33;31.83;;;17.20;;
11735;SDS011;5924;51.398;7.088;2022-11-20T03:41:00;29.03;;;16.80;;
11735;SDS011;5924;51.398;7.088;2022-11-20T03:43:29;33.13;;;16.80;;
11735;SDS011;5924;51.398;7.088;2022-11-20T03:45:55;33.93;;;18.90;;
11735;SDS011;5924;51.398;7.088;2022-11-20T03:48:21;30.47;;;17.47;;
11735;SDS011;5924;51.398;7.088;2022-11-20T03:50:46;29.03;;;17.70;;
11735;SDS011;5924;51.398;7.088;2022-11-20T03:53:13;36.73;;;18.43;;
11735;SDS011;5924;51.398;7.088;2022-11-20T03:55:39;32.20;;;17.90;;
11735;SDS011;5924;51.398;7.088;2022-11-20T03:58:05;34.43;;;17.40;;
11735;SDS011;5924;51.398;7.088;2022-11-20T04:00:31;30.00;;;16.67;;
11735;SDS011;5924;51.398;7.088;2022-11-20T04:03:00;25.93;;;16.37;;
11735;SDS011;5924;51.398;7.088;2022-11-20T04:05:26;30.90;;;17.40;;
11735;SDS011;5924;51.398;7.088;2022-11-20T04:07:51;40.33;;;19.23;;
11735;SDS011;5924;51.398;7.088;2022-11-20T04:10:17;31.70;;;17.60;;
11735;SDS011;5924;51.398;7.088;2022-11-20T04:12:43;34.80;;;18.27;;
11735;SDS011;5924;51.398;7.088;2022-11-20T04:15:09;28.87;;;16.17;;
11735;SDS011;5924;51.398;7.088;2022-11-20T04:17:34;28.03;;;15.93;;
11735;SDS011;5924;51.398;7.088;2022-11-20T04:20:00;33.73;;;17.40;;
11735;SDS011;5924;51.398;7.088;2022-11-20T04:22:26;29.50;;;16.33;;
11735;SDS011;5924;51.398;7.088;2022-11-20T04:24:52;31.53;;;17.30;;
11735;SDS011;5924;51.398;7.088;2022-11-20T04:27:17;38.63;;;19.03;;
11735;SDS011;5924;51.398;7.088;2022-11-20T04:29:43;27.63;;;17.37;;
11735;SDS011;5924;51.398;7.088;2022-11-20T04:32:08;35.60;;;17.90;;
11735;SDS011;5924;51.398;7.088;2022-11-20T04:34:34;26.57;;;15.87;;
11735;SDS011;5924;51.398;7.088;2022-11-20T04:37:00;27.10;;;16.10;;
11735;SDS011;5924;51.398;7.088;2022-11-20T04:39:26;28.30;;;14.90;;
11735;SDS011;5924;51.398;7.088;2022-11-20T04:41:51;28.10;;;15.97;;
11735;SDS011;5924;51.398;7.088;2022-11-20T04:44:37;33.60;;;19.17;;
11735;SDS011;5924;51.398;7.088;2022-11-20T04:47:03;30.80;;;15.93;;
11735;SDS011;5924;51.398;7.088;2022-11-20T04:49:28;30.47;;;17.90;;
11735;SDS011;5924;51.398;7.088;2022-11-20T04:51:54;31.70;;;18.97;;
11735;SDS011;5924;51.398;7.088;2022-11-20T04:54:19;31.27;;;16.87;;
11735;SDS011;5924;51.398;7.088;2022-11-20T04:56:47;32.87;;;17.13;;
11735;SDS011;5924;51.398;7.088;2022-11-20T04:59:13;31.70;;;17.50;;
11735;SDS011;5924;51.398;7.088;2022-11-20T05:01:39;27.20;;;16.80;;
11735;SDS011;5924;51.398;7.088;2022-11-20T05:04:04;30.40;;;16.87;;
11735;SDS011;5924;51.398;7.088;2022-11-20T05:06:30;25.30;;;16.77;;
11735;SDS011;5924;51.398;7.088;2022-11-20T05:08:57;30.50;;;16.57;;
11735;SDS011;5924;51.398;7.088;2022-11-20T05:11:23;25.10;;;15.50;;
11735;SDS011;5924;51.398;7.088;2022-11-20T05:13:49;26.63;;;16.00;;
11735;SDS011;5924;51.398;7.088;2022-11-20T05:16:17;27.90;;;16.23;;
11735;SDS011;5924;51.398;7.088;2022-11-20T05:18:44;27.20;;;15.83;;
11735;SDS011;5924;51.398;7.088;2022-11-20T05:21:10;35.43;;;16.10;;
11735;SDS011;5924;51.398;7.088;2022-11-20T05:23:37;33.70;;;16.80;;
11735;SDS011;5924;51.398;7.088;2022-11-20T05:26:03;33.33;;;16.53;;
11735;SDS011;5924;51.398;7.088;2022-11-20T05:28:29;27.80;;;17.30;;
11735;SDS011;5924;51.398;7.088;2022-11-20T05:30:56;30.20;;;16.73;;
11735;SDS011;5924;51.398;7.088;2022-11-20T05:33:28;32.07;;;16.50;;
11735;SDS011;5924;51.398;7.088;2022-11-20T05:35:57;35.73;;;16.97;;
11735;SDS011;5924;51.398;7.088;2022-11-20T05:38:23;35.00;;;17.00;;
11735;SDS011;5924;51.398;7.088;2022-11-20T05:40:49;31.57;;;17.03;;
11735;SDS011;5924;51.398;7.088;2022-11-20T05:43:14;28.53;;;16.57;;
11735;SDS011;5924;51.398;7.088;2022-11-20T05:45:40;27.07;;;16.40;;
11735;SDS011;5924;51.398;7.088;2022-11-20T05:48:06;24.20;;;15.17;;
11735;SDS011;5924;51.398;7.088;2022-11-20T05:50:31;25.17;;;15.00;;
11735;SDS011;5924;51.398;7.088;2022-11-20T05:52:58;30.20;;;16.37;;
11735;SDS011;5924;51.398;7.088;2022-11-20T05:55:24;23.43;;;14.87;;
11735;SDS011;5924;51.398;7.088;2022-11-20T05:57:51;27.70;;;17.20;;
11735;SDS011;5924;51.398;7.088;2022-11-20T06:00:18;23.10;;;13.93;;
11735;SDS011;5924;51.398;7.088;2022-11-20T06:02:44;24.73;;;14.80;;
11735;SDS011;5924;51.398;7.088;2022-11-20T06:05:09;30.53;;;17.10;;
11735;SDS011;5924;51.398;7.088;2022-11-20T06:07:35;26.37;;;16.03;;
11735;SDS011;5924;51.398;7.088;2022-11-20T06:10:01;24.10;;;14.60;;
11735;SDS011;5924;51.398;7.088;2022-11-20T06:12:26;25.70;;;15.27;;
11735;SDS011;5924;51.398;7.088;2022-11-20T06:14:52;29.73;;;16.80;;
11735;SDS011;5924;51.398;7.088;2022-11-20T06:17:17;30.37;;;17.70;;
11735;SDS011;5924;51.398;7.088;2022-11-20T06:19:43;26.90;;;16.43;;
11735;SDS011;5924;51.398;7.088;2022-11-20T06:22:08;30.40;;;17.13;;
11735;SDS011;5924;51.398;7.088;2022-11-20T06:24:34;24.93;;;14.90;;
11735;SDS011;5924;51.398;7.088;2022-11-20T06:27:00;26.57;;;14.70;;
11735;SDS011;5924;51.398;7.088;2022-11-20T06:29:25;28.40;;;16.30;;
11735;SDS011;5924;51.398;7.088;2022-11-20T06:31:51;26.83;;;16.30;;
11735;SDS011;5924;51.398;7.088;2022-11-20T06:34:16;27.50;;;16.90;;
11735;SDS011;5924;51.398;7.088;2022-11-20T06:36:42;29.30;;;16.50;;
11735;SDS011;5924;51.398;7.088;2022-11-20T06:39:08;23.53;;;14.67;;
11735;SDS011;5924;51.398;7.088;2022-11-20T06:41:33;24.40;;;15.10;;
11735;SDS011;5924;51.398;7.088;2022-11-20T06:43:59;25.33;;;15.67;;
11735;SDS011;5924;51.398;7.088;2022-11-20T06:46:24;23.80;;;14.60;;
11735;SDS011;5924;51.398;7.088;2022-11-20T06:48:50;25.30;;;15.53;;
11735;SDS011;5924;51.398;7.088;2022-11-20T06:51:16;24.50;;;15.93;;
11735;SDS011;5924;51.398;7.088;2022-11-20T06:53:42;27.47;;;14.77;;
11735;SDS011;5924;51.398;7.088;2022-11-20T06:56:08;23.53;;;14.13;;
11735;SDS011;5924;51.398;7.088;2022-11-20T06:58:34;30.10;;;16.60;;
11735;SDS011;5924;51.398;7.088;2022-11-20T07:01:01;24.30;;;14.20;;
11735;SDS011;5924;51.398;7.088;2022-11-20T07:03:32;25.20;;;15.97;;
11735;SDS011;5924;51.398;7.088;2022-11-20T07:05:58;25.20;;;16.50;;
11735;SDS011;5924;51.398;7.088;2022-11-20T07:08:26;21.73;;;14.17;;
11735;SDS011;5924;51.398;7.088;2022-11-20T07:10:51;29.97;;;15.07;;
11735;SDS011;5924;51.398;7.088;2022-11-20T07:13:17;21.93;;;14.10;;
11735;SDS011;5924;51.398;7.088;2022-11-20T07:15:43;26.40;;;16.70;;
11735;SDS011;5924;51.398;7.088;2022-11-20T07:18:08;25.53;;;15.50;;
11735;SDS011;5924;51.398;7.088;2022-11-20T07:20:34;31.33;;;16.77;;
11735;SDS011;5924;51.398;7.088;2022-11-20T07:23:00;24.10;;;15.07;;
11735;SDS011;5924;51.398;7.088;2022-11-20T07:25:26;26.43;;;16.17;;
11735;SDS011;5924;51.398;7.088;2022-11-20T07:27:52;30.80;;;16.60;;
11735;SDS011;5924;51.398;7.088;2022-11-20T07:30:21;22.90;;;14.47;;
11735;SDS011;5924;51.398;7.088;2022-11-20T07:32:47;23.53;;;14.33;;
11735;SDS011;5924;51.398;7.088;2022-11-20T07:35:16;23.47;;;14.10;;
11735;SDS011;5924;51.398;7.088;2022-11-20T07:37:42;29.70;;;16.90;;
11735;SDS011;5924;51.398;7.088;2022-11-20T07:40:07;31.97;;;16.80;;
11735;SDS011;5924;51.398;7.088;2022-11-20T07:42:33;31.60;;;16.90;;
11735;SDS011;5924;51.398;7.088;2022-11-20T07:44:59;30.77;;;17.67;;
11735;SDS011;5924;51.398;7.088;2022-11-20T07:47:25;26.57;;;14.90;;
11735;SDS011;5924;51.398;7.088;2022-11-20T07:49:50;23.40;;;14.90;;
11735;SDS011;5924;51.398;7.088;2022-11-20T07:52:16;27.37;;;16.17;;
11735;SDS011;5924;51.398;7.088;2022-11-20T07:54:41;29.67;;;17.10;;
11735;SDS011;5924;51.398;7.088;2022-11-20T07:57:07;30.53;;;18.10;;
11735;SDS011;5924;51.398;7.088;2022-11-20T07:59:32;34.33;;;19.47;;
11735;SDS011;5924;51.398;7.088;2022-11-20T08:01:58;35.37;;;20.37;;
11735;SDS011;5924;51.398;7.088;2022-11-20T08:04:24;41.33;;;21.53;;
11735;SDS011;5924;51.398;7.088;2022-11-20T08:06:51;33.37;;;20.43;;
11735;SDS011;5924;51.398;7.088;2022-11-20T08:09:17;34.13;;;18.50;;
11735;SDS011;5924;51.398;7.088;2022-11-20T08:11:42;34.53;;;19.53;;
11735;SDS011;5924;51.398;7.088;2022-11-20T08:14:31;35.83;;;19.87;;
11735;SDS011;5924;51.398;7.088;2022-11-20T08:16:56;43.80;;;23.03;;
11735;SDS011;5924;51.398;7.088;2022-11-20T08:19:22;44.73;;;23.70;;
11735;SDS011;5924;51.398;7.088;2022-11-20T08:21:48;46.83;;;25.00;;
11735;SDS011;5924;51.398;7.088;2022-11-20T08:24:14;44.27;;;23.70;;
11735;SDS011;5924;51.398;7.088;2022-11-20T08:26:40;42.90;;;22.97;;
11735;SDS011;5924;51.398;7.088;2022-11-20T08:29:06;41.87;;;23.20;;
11735;SDS011;5924;51.398;7.088;2022-11-20T08:31:32;46.13;;;23.53;;
11735;SDS011;5924;51.398;7.088;2022-11-20T08:33:58;39.00;;;22.10;;
11735;SDS011;5924;51.398;7.088;2022-11-20T08:36:23;44.47;;;24.17;;
11735;SDS011;5924;51.398;7.088;2022-11-20T08:38:50;52.57;;;28.63;;
11735;SDS011;5924;51.398;7.088;2022-11-20T08:41:17;44.23;;;23.10;;
11735;SDS011;5924;51.398;7.088;2022-11-20T08:43:52;52.87;;;28.93;;
11735;SDS011;5924;51.398;7.088;2022-11-20T08:46:26;49.70;;;25.53;;
11735;SDS011;5924;51.398;7.088;2022-11-20T08:49:13;49.97;;;27.10;;
11735;SDS011;5924;51.398;7.088;2022-11-20T08:51:39;46.50;;;23.67;;
11735;SDS011;5924;51.398;7.088;2022-11-20T08:54:05;37.00;;;21.20;;
11735;SDS011;5924;51.398;7.088;2022-11-20T08:56:32;40.87;;;21.47;;
11735;SDS011;5924;51.398;7.088;2022-11-20T08:58:58;38.63;;;21.90;;
11735;SDS011;5924;51.398;7.088;2022-11-20T09:01:24;42.50;;;21.03;;
11735;SDS011;5924;51.398;7.088;2022-11-20T09:03:51;40.23;;;22.70;;
11735;SDS011;5924;51.398;7.088;2022-11-20T09:06:16;38.13;;;22.70;;
11735;SDS011;5924;51.398;7.088;2022-11-20T09:08:43;33.13;;;19.50;;
11735;SDS011;5924;51.398;7.088;2022-11-20T09:11:08;34.33;;;20.17;;
11735;SDS011;5924;51.398;7.088;2022-11-20T09:13:35;40.30;;;20.67;;
11735;SDS011;5924;51.398;7.088;2022-11-20T09:16:02;37.20;;;21.00;;
11735;SDS011;5924;51.398;7.088;2022-11-20T09:18:30;36.57;;;20.23;;
11735;SDS011;5924;51.398;7.088;2022-11-20T09:21:00;30.17;;;18.17;;
11735;SDS011;5924;51.398;7.088;2022-11-20T09:23:27;29.10;;;16.50;;
11735;SDS011;5924;51.398;7.088;2022-11-20T09:25:57;29.20;;;18.90;;
11735;SDS011;5924;51.398;7.088;2022-11-20T09:28:25;42.27;;;21.33;;
11735;SDS011;5924;51.398;7.088;2022-11-20T09:30:50;40.53;;;21.77;;
11735;SDS011;5924;51.398;7.088;2022-11-20T09:33:16;33.80;;;19.00;;
11735;SDS011;5924;51.398;7.088;2022-11-20T09:35:42;33.00;;;18.40;;
11735;SDS011;5924;51.398;7.088;2022-11-20T09:38:09;29.97;;;17.67;;
11735;SDS011;5924;51.398;7.088;2022-11-20T09:40:36;29.13;;;17.53;;
11735;SDS011;5924;51.398;7.088;2022-11-20T09:45:55;30.97;;;18.33;;
11735;SDS011;5924;51.398;7.088;2022-11-20T09:51:28;26.70;;;15.77;;
11735;SDS011;5924;51.398;7.088;2022-11-20T09:54:19;27.50;;;16.13;;
11735;SDS011;5924;51.398;7.088;2022-11-20T09:56:52;25.50;;;15.47;;
11735;SDS011;5924;51.398;7.088;2022-11-20T10:11:06;11.97;;;9.13;;
11735;SDS011;5924;51.398;7.088;2022-11-20T10:22:12;14.03;;;9.60;;
11735;SDS011;5924;51.398;7.088;2022-11-20T10:32:38;16.20;;;9.90;;
11735;SDS011;5924;51.398;7.088;2022-11-20T10:37:59;9.80;;;8.77;;
11735;SDS011;5924;51.398;7.088;2022-11-20T10:43:04;12.90;;;8.50;;
11735;SDS011;5924;51.398;7.088;2022-11-20T10:50:37;11.60;;;9.03;;
11735;SDS011;5924;51.398;7.088;2022-11-20T10:56:04;16.50;;;10.00;;
11735;SDS011;5924;51.398;7.088;2022-11-20T10:58:47;14.10;;;10.27;;
11735;SDS011;5924;51.398;7.088;2022-11-20T11:01:19;11.57;;;9.07;;
11735;SDS011;5924;51.398;7.088;2022-11-20T11:03:50;14.23;;;9.47;;
11735;SDS011;5924;51.398;7.088;2022-11-20T11:06:21;12.67;;;8.73;;
11735;SDS011;5924;51.398;7.088;2022-11-20T11:09:12;13.23;;;10.03;;
11735;SDS011;5924;51.398;7.088;2022-11-20T11:11:42;16.70;;;10.80;;
11735;SDS011;5924;51.398;7.088;2022-11-20T11:14:10;14.20;;;8.57;;
11735;SDS011;5924;51.398;7.088;2022-11-20T11:16:48;11.70;;;8.67;;
11735;SDS011;5924;51.398;7.088;2022-11-20T11:19:14;14.33;;;10.40;;
11735;SDS011;5924;51.398;7.088;2022-11-20T11:21:46;15.33;;;10.13;;
11735;SDS011;5924;51.398;7.088;2022-11-20T11:24:27;16.33;;;10.53;;
11735;SDS011;5924;51.398;7.088;2022-11-20T11:26:58;17.50;;;10.60;;
11735;SDS011;5924;51.398;7.088;2022-11-20T11:29:29;19.47;;;10.63;;
11735;SDS011;5924;51.398;7.088;2022-11-20T11:32:06;23.13;;;10.87;;
11735;SDS011;5924;51.398;7.088;2022-11-20T11:34:33;21.73;;;10.50;;
11735;SDS011;5924;51.398;7.088;2022-11-20T11:36:59;16.73;;;10.93;;
11735;SDS011;5924;51.398;7.088;2022-11-20T11:39:28;20.57;;;11.70;;
11735;SDS011;5924;51.398;7.088;2022-11-20T11:41:55;18.37;;;10.37;;
11735;SDS011;5924;51.398;7.088;2022-11-20T11:44:30;16.63;;;10.97;;
11735;SDS011;5924;51.398;7.088;2022-11-20T11:50:00;16.53;;;10.03;;
11735;SDS011;5924;51.398;7.088;2022-11-20T11:55:54;14.97;;;10.10;;
11735;SDS011;5924;51.398;7.088;2022-11-20T12:06:39;17.40;;;11.90;;
11735;SDS011;5924;51.398;7.088;2022-11-20T12:09:10;21.23;;;11.43;;
11735;SDS011;5924;51.398;7.088;2022-11-20T12:14:32;16.07;;;10.67;;
11735;SDS011;5924;51.398;7.088;2022-11-20T12:17:01;19.17;;;12.07;;
11735;SDS011;5924;51.398;7.088;2022-11-20T12:19:29;15.07;;;11.00;;
11735;SDS011;5924;51.398;7.088;2022-11-20T12:24:55;17.60;;;11.97;;
11735;SDS011;5924;51.398;7.088;2022-11-20T12:30:25;18.30;;;12.33;;
11735;SDS011;5924;51.398;7.088;2022-11-20T12:41:02;22.03;;;12.90;;
11735;SDS011;5924;51.398;7.088;2022-11-20T12:52:47;21.70;;;12.63;;
11735;SDS011;5924;51.398;7.088;2022-11-20T12:57:53;22.73;;;13.63;;
11735;SDS011;5924;51.398;7.088;2022-11-20T13:00:25;27.27;;;13.60;;
11735;SDS011;5924;51.398;7.088;2022-11-20T13:08:31;28.93;;;16.00;;
11735;SDS011;5924;51.398;7.088;2022-11-20T13:16:37;23.87;;;14.80;;
11735;SDS011;5924;51.398;7.088;2022-11-20T13:19:12;22.27;;;14.00;;
11735;SDS011;5924;51.398;7.088;2022-11-20T13:21:41;29.17;;;15.07;;
11735;SDS011;5924;51.398;7.088;2022-11-20T13:26:44;25.00;;;15.00;;
11735;SDS011;5924;51.398;7.088;2022-11-20T13:29:17;24.73;;;16.17;;
11735;SDS011;5924;51.398;7.088;2022-11-20T13:31:45;23.67;;;14.97;;
11735;SDS011;5924;51.398;7.088;2022-11-20T13:34:50;27.23;;;15.63;;
11735;SDS011;5924;51.398;7.088;2022-11-20T13:37:03;25.17;;;15.47;;
11735;SDS011;5924;51.398;7.088;2022-11-20T13:42:00;25.13;;;14.43;;
11735;SDS011;5924;51.398;7.088;2022-11-20T13:44:41;29.07;;;15.63;;
11735;SDS011;5924;51.398;7.088;2022-11-20T13:47:20;26.67;;;14.83;;
11735;SDS011;5924;51.398;7.088;2022-11-20T13:49:51;28.30;;;17.10;;
11735;SDS011;5924;51.398;7.088;2022-11-20T13:58:04;29.40;;;15.63;;
11735;SDS011;5924;51.398;7.088;2022-11-20T14:01:21;27.97;;;14.70;;
11735;SDS011;5924;51.398;7.088;2022-11-20T14:03:49;27.47;;;16.43;;
11735;SDS011;5924;51.398;7.088;2022-11-20T14:07:02;28.63;;;16.73;;
11735;SDS011;5924;51.398;7.088;2022-11-20T14:09:24;24.17;;;14.80;;
11735;SDS011;5924;51.398;7.088;2022-11-20T14:11:51;25.70;;;15.00;;
11735;SDS011;5924;51.398;7.088;2022-11-20T14:14:17;31.60;;;18.03;;
11735;SDS011;5924;51.398;7.088;2022-11-20T14:16:48;31.93;;;16.80;;
11735;SDS011;5924;51.398;7.088;2022-11-20T14:21:49;36.53;;;18.90;;
11735;SDS011;5924;51.398;7.088;2022-11-20T14:24:20;28.90;;;15.97;;
11735;SDS011;5924;51.398;7.088;2022-11-20T14:26:47;33.17;;;18.47;;
11735;SDS011;5924;51.398;7.088;2022-11-20T14:29:15;32.20;;;17.07;;
11735;SDS011;5924;51.398;7.088;2022-11-20T14:32:01;29.83;;;15.90;;
11735;SDS011;5924;51.398;7.088;2022-11-20T14:34:29;28.57;;;16.17;;
11735;SDS011;5924;51.398;7.088;2022-11-20T14:37:00;32.80;;;17.77;;
11735;SDS011;5924;51.398;7.088;2022-11-20T14:39:34;31.20;;;15.80;;
11735;SDS011;5924;51.398;7.088;2022-11-20T14:42:14;27.83;;;15.83;;
11735;SDS011;5924;51.398;7.088;2022-11-20T14:44:44;35.20;;;17.93;;
11735;SDS011;5924;51.398;7.088;2022-11-20T14:47:12;35.90;;;18.50;;
11735;SDS011;5924;51.398;7.088;2022-11-20T14:49:40;38.10;;;18.50;;
11735;SDS011;5924;51.398;7.088;2022-11-20T14:52:11;40.77;;;22.27;;
11735;SDS011;5924;51.398;7.088;2022-11-20T14:54:43;32.23;;;19.23;;
11735;SDS011;5924;51.398;7.088;2022-11-20T14:57:20;31.03;;;17.93;;
11735;SDS011;5924;51.398;7.088;2022-11-20T14:59:46;41.83;;;19.63;;
11735;SDS011;5924;51.398;7.088;2022-11-20T15:02:12;34.80;;;19.10;;
11735;SDS011;5924;51.398;7.088;2022-11-20T15:04:48;40.53;;;19.67;;
11735;SDS011;5924;51.398;7.088;2022-11-20T15:12:38;34.77;;;18.93;;
11735;SDS011;5924;51.398;7.088;2022-11-20T15:15:11;30.03;;;15.70;;
11735;SDS011;5924;51.398;7.088;2022-11-20T15:17:41;28.97;;;15.30;;
11735;SDS011;5924;51.398;7.088;2022-11-20T15:20:14;31.20;;;17.23;;
11735;SDS011;5924;51.398;7.088;2022-11-20T15:22:41;35.57;;;18.20;;
11735;SDS011;5924;51.398;7.088;2022-11-20T15:25:17;35.17;;;18.67;;
11735;SDS011;5924;51.398;7.088;2022-11-20T15:27:43;33.30;;;16.20;;
11735;SDS011;5924;51.398;7.088;2022-11-20T15:30:17;37.70;;;18.03;;
11735;SDS011;5924;51.398;7.088;2022-11-20T15:32:44;33.60;;;18.20;;
11735;SDS011;5924;51.398;7.088;2022-11-20T15:35:13;29.80;;;17.33;;
11735;SDS011;5924;51.398;7.088;2022-11-20T15:37:39;31.50;;;16.77;;
11735;SDS011;5924;51.398;7.088;2022-11-20T15:40:06;35.13;;;18.47;;
11735;SDS011;5924;51.398;7.088;2022-11-20T15:42:33;34.77;;;18.60;;
11735;SDS011;5924;51.398;7.088;2022-11-20T15:44:59;28.10;;;16.30;;
11735;SDS011;5924;51.398;7.088;2022-11-20T15:47:26;33.07;;;17.37;;
11735;SDS011;5924;51.398;7.088;2022-11-20T15:49:55;37.33;;;18.60;;
11735;SDS011;5924;51.398;7.088;2022-11-20T15:52:20;40.40;;;20.77;;
11735;SDS011;5924;51.398;7.088;2022-11-20T15:54:47;40.07;;;20.53;;
11735;SDS011;5924;51.398;7.088;2022-11-20T15:57:12;37.30;;;20.30;;
11735;SDS011;5924;51.398;7.088;2022-11-20T15:59:38;36.33;;;19.93;;
11735;SDS011;5924;51.398;7.088;2022-11-20T16:02:10;40.80;;;18.93;;
11735;SDS011;5924;51.398;7.088;2022-11-20T16:04:36;37.47;;;19.30;;
11735;SDS011;5924;51.398;7.088;2022-11-20T16:07:02;40.90;;;18.80;;
11735;SDS011;5924;51.398;7.088;2022-11-20T16:09:28;35.60;;;17.67;;
11735;SDS011;5924;51.398;7.088;2022-11-20T16:11:53;37.37;;;18.30;;
11735;SDS011;5924;51.398;7.088;2022-11-20T16:14:19;37.50;;;19.60;;
11735;SDS011;5924;51.398;7.088;2022-11-20T16:17:03;41.33;;;19.03;;
11735;SDS011;5924;51.398;7.088;2022-11-20T16:19:29;39.43;;;19.30;;
11735;SDS011;5924;51.398;7.088;2022-11-20T16:21:56;32.10;;;17.37;;
11735;SDS011;5924;51.398;7.088;2022-11-20T16:24:22;38.43;;;20.83;;
11735;SDS011;5924;51.398;7.088;2022-11-20T16:26:48;37.97;;;20.60;;
11735;SDS011;5924;51.398;7.088;2022-11-20T16:29:14;42.47;;;20.47;;
11735;SDS011;5924;51.398;7.088;2022-11-20T16:31:39;42.40;;;20.20;;
11735;SDS011;5924;51.398;7.088;2022-11-20T16:34:06;45.00;;;21.37;;
11735;SDS011;5924;51.398;7.088;2022-11-20T16:36:32;40.67;;;20.00;;
11735;SDS011;5924;51.398;7.088;2022-11-20T16:38:58;48.20;;;19.60;;
11735;SDS011;5924;51.398;7.088;2022-11-20T16:41:26;50.83;;;23.30;;
11735;SDS011;5924;51.398;7.088;2022-11-20T16:43:54;52.53;;;22.73;;
11735;SDS011;5924;51.398;7.088;2022-11-20T16:46:24;49.80;;;20.47;;
11735;SDS011;5924;51.398;7.088;2022-11-20T16:48:58;40.87;;;20.23;;
11735;SDS011;5924;51.398;7.088;2022-11-20T16:51:25;43.50;;;19.77;;